Time;durP1;ratioP1;P1;durP2;ratioP2;P2;SDS_P1;SDS_P2;PMS_P1;PMS_P2;Temp;Humidity;BMP_temperature;BMP_pressure;BME280_temperature;BME280_humidity;BME280_pressure;Samples;Min_cycle;Max_cycle;Signal;HPM_P1;HPM_P2
2023/06/01 00:00:33;;;;;;;13.30;8.70;;;16.10;56.40;;;;;;5054238;28;20172;-84
2023/06/01 00:02:59;;;;;;;13.73;9.37;;;16.00;56.40;;;;;;5053445;28;20169;-81
2023/06/01 00:05:25;;;;;;;15.03;10.17;;;15.90;59.30;;;;;;5053398;28;20541;-83
2023/06/01 00:07:50;;;;;;;14.67;9.60;;;15.90;60.50;;;;;;5053443;28;20173;-82
2023/06/01 00:10:17;;;;;;;12.73;9.20;;;15.80;59.60;;;;;;5053493;28;20489;-83
2023/06/01 00:12:43;;;;;;;13.97;9.23;;;15.80;59.60;;;;;;5052932;28;20173;-86
2023/06/01 00:15:09;;;;;;;12.13;9.10;;;15.70;63.10;;;;;;5052939;28;20250;-82
2023/06/01 00:17:35;;;;;;;13.63;10.33;;;15.70;65.00;;;;;;5052742;28;20234;-84
2023/06/01 00:20:01;;;;;;;14.63;9.10;;;15.70;65.90;;;;;;5054374;28;20629;-84
2023/06/01 00:22:38;;;;;;;11.87;9.23;;;15.70;64.90;;;;;;5074887;28;20152;-82
2023/06/01 00:25:08;;;;;;;12.93;9.73;;;15.60;65.00;;;;;;5040259;28;20180;-81
2023/06/01 00:27:36;;;;;;;15.63;10.30;;;15.50;66.70;;;;;;5038399;28;20263;-82
2023/06/01 00:30:02;;;;;;;12.73;9.53;;;15.50;68.20;;;;;;5052449;28;20223;-84
2023/06/01 00:32:28;;;;;;;13.63;9.63;;;15.50;69.50;;;;;;5053172;28;20161;-83
2023/06/01 00:34:54;;;;;;;12.83;8.93;;;15.40;70.10;;;;;;5052541;28;20383;-82
2023/06/01 00:37:20;;;;;;;14.87;8.77;;;15.40;69.00;;;;;;5052949;28;20699;-82
2023/06/01 00:39:45;;;;;;;15.07;10.60;;;15.40;72.30;;;;;;5052046;28;20189;-80
2023/06/01 00:42:11;;;;;;;17.87;9.20;;;15.30;73.30;;;;;;5035293;28;20700;-81
2023/06/01 00:44:36;;;;;;;14.70;9.93;;;15.30;72.10;;;;;;5035273;28;20207;-80
2023/06/01 00:47:03;;;;;;;11.97;8.77;;;15.30;72.10;;;;;;5052877;28;20306;-83
2023/06/01 00:49:28;;;;;;;11.77;9.63;;;15.20;70.50;;;;;;5055851;28;20651;-85
2023/06/01 00:51:54;;;;;;;13.13;9.53;;;15.20;73.70;;;;;;5056864;28;20255;-83
2023/06/01 00:54:21;;;;;;;13.97;10.40;;;15.20;74.40;;;;;;5055842;28;20196;-82
2023/06/01 00:56:46;;;;;;;16.87;9.37;;;15.10;76.80;;;;;;5039004;28;20223;-83
2023/06/01 00:59:13;;;;;;;12.20;9.67;;;15.10;77.20;;;;;;5057279;28;20184;-81
2023/06/01 01:01:42;;;;;;;13.87;10.20;;;15.10;76.60;;;;;;5070087;28;20232;-82
2023/06/01 01:04:09;;;;;;;13.23;9.47;;;15.10;76.70;;;;;;5058173;28;20173;-84
2023/06/01 01:06:51;;;;;;;16.07;11.47;;;15.00;76.10;;;;;;5039421;28;20180;-80
2023/06/01 01:09:37;;;;;;;12.07;9.53;;;15.00;77.70;;;;;;5057122;28;20251;-83
2023/06/01 01:12:24;;;;;;;12.43;9.80;;;15.00;76.60;;;;;;5058084;28;20820;-84
2023/06/01 01:15:12;;;;;;;13.57;10.33;;;15.00;74.40;;;;;;5063983;28;20169;-83
2023/06/01 01:17:42;;;;;;;13.60;10.40;;;15.00;74.60;;;;;;5065896;28;20247;-80
2023/06/01 01:20:22;;;;;;;13.20;9.63;;;14.90;76.80;;;;;;5043690;28;20582;-84
2023/06/01 01:22:51;;;;;;;14.67;10.43;;;14.90;76.10;;;;;;5056216;28;20188;-82
2023/06/01 01:25:58;;;;;;;13.50;10.43;;;14.80;76.70;;;;;;5038318;28;20173;-86
2023/06/01 01:28:40;;;;;;;17.00;11.13;;;14.80;78.50;;;;;;4973962;28;20176;-84
2023/06/01 01:31:10;;;;;;;14.33;10.33;;;14.80;78.40;;;;;;5034118;28;20683;-80
2023/06/01 01:33:36;;;;;;;15.97;9.47;;;14.70;78.10;;;;;;5057050;28;20161;-83
2023/06/01 01:36:03;;;;;;;13.27;10.27;;;14.70;76.10;;;;;;5038293;28;20207;-79
2023/06/01 01:38:29;;;;;;;16.57;10.20;;;14.70;80.10;;;;;;5056173;28;20169;-81
2023/06/01 01:40:56;;;;;;;12.67;10.63;;;14.70;77.80;;;;;;5056197;28;20172;-83
2023/06/01 01:43:23;;;;;;;16.87;11.97;;;14.60;81.40;;;;;;5055981;28;20172;-82
2023/06/01 01:45:59;;;;;;;15.60;10.67;;;14.60;81.00;;;;;;5037829;28;20176;-84
2023/06/01 01:48:50;;;;;;;15.17;11.13;;;14.60;82.00;;;;;;5037376;28;20180;-80
2023/06/01 01:51:22;;;;;;;12.20;9.80;;;14.60;82.90;;;;;;5054242;28;20221;-81
2023/06/01 01:53:51;;;;;;;16.73;10.77;;;14.50;79.90;;;;;;5038421;28;20169;-84
2023/06/01 01:56:18;;;;;;;14.77;11.27;;;14.50;80.60;;;;;;5054155;28;20210;-84
2023/06/01 01:58:47;;;;;;;14.33;10.60;;;14.40;84.60;;;;;;5037767;28;20189;-85
2023/06/01 02:01:13;;;;;;;15.00;11.10;;;14.40;84.30;;;;;;5055310;28;20172;-83
2023/06/01 02:03:39;;;;;;;17.83;11.93;;;14.40;85.70;;;;;;5058371;28;20180;-82
2023/06/01 02:06:05;;;;;;;16.90;11.53;;;14.30;87.40;;;;;;5054699;28;20188;-83
2023/06/01 02:08:37;;;;;;;15.10;11.83;;;14.30;87.50;;;;;;5063398;28;20165;-80
2023/06/01 02:11:02;;;;;;;17.13;12.80;;;14.30;89.10;;;;;;5057800;28;20183;-83
2023/06/01 02:13:28;;;;;;;14.80;11.57;;;14.20;89.60;;;;;;5039926;28;20180;-85
2023/06/01 02:15:54;;;;;;;16.77;12.50;;;14.30;88.90;;;;;;5056180;28;20204;-81
2023/06/01 02:18:20;;;;;;;14.63;11.63;;;14.30;87.20;;;;;;5055038;28;20647;-84
2023/06/01 02:20:45;;;;;;;17.80;11.73;;;14.30;87.60;;;;;;5037806;28;20256;-82
2023/06/01 02:23:11;;;;;;;16.07;11.03;;;14.20;88.40;;;;;;5054907;28;20207;-84
2023/06/01 02:25:37;;;;;;;15.23;11.10;;;14.10;88.90;;;;;;5037410;28;20537;-81
2023/06/01 02:28:03;;;;;;;16.50;10.33;;;14.10;91.50;;;;;;5039367;28;20183;-81
2023/06/01 02:30:28;;;;;;;16.07;11.43;;;14.10;91.00;;;;;;5064681;28;20160;-84
2023/06/01 02:32:54;;;;;;;18.17;12.03;;;14.00;92.50;;;;;;5044852;28;20687;-82
2023/06/01 02:35:20;;;;;;;18.50;11.53;;;13.90;93.10;;;;;;5036716;28;20576;-80
2023/06/01 02:37:46;;;;;;;16.87;13.60;;;13.90;94.10;;;;;;5054866;28;20179;-82
2023/06/01 02:40:12;;;;;;;17.90;11.73;;;13.90;94.60;;;;;;5036324;28;20196;-83
2023/06/01 02:42:38;;;;;;;17.00;12.17;;;13.90;94.20;;;;;;5036975;28;20268;-83
2023/06/01 02:45:06;;;;;;;18.40;12.80;;;13.80;95.70;;;;;;5053860;28;20255;-81
2023/06/01 02:47:32;;;;;;;19.10;13.07;;;13.70;95.60;;;;;;5036716;28;20191;-82
2023/06/01 02:49:57;;;;;;;18.10;12.97;;;13.70;97.40;;;;;;5037366;28;20207;-84
2023/06/01 02:52:23;;;;;;;16.60;11.90;;;13.70;98.00;;;;;;5054558;28;20630;-84
2023/06/01 02:54:48;;;;;;;16.30;12.50;;;13.70;98.20;;;;;;5035795;28;20199;-84
2023/06/01 02:57:14;;;;;;;19.87;12.13;;;13.60;98.70;;;;;;5053541;28;20290;-82
2023/06/01 02:59:40;;;;;;;19.03;13.17;;;13.50;99.70;;;;;;5054815;28;20188;-82
2023/06/01 03:02:06;;;;;;;19.80;13.00;;;13.50;99.90;;;;;;5054626;28;20550;-85
2023/06/01 03:04:32;;;;;;;22.00;14.43;;;13.50;99.90;;;;;;5053385;28;20265;-83
2023/06/01 03:06:58;;;;;;;20.63;13.67;;;13.40;99.90;;;;;;5053659;28;20638;-82
2023/06/01 03:09:24;;;;;;;16.60;12.60;;;13.40;99.90;;;;;;5036355;28;20180;-80
2023/06/01 03:11:50;;;;;;;21.13;14.70;;;13.30;99.90;;;;;;5054381;28;20538;-81
2023/06/01 03:14:16;;;;;;;19.27;13.93;;;13.30;99.90;;;;;;5053746;28;20178;-80
2023/06/01 03:16:42;;;;;;;20.77;14.53;;;13.30;99.90;;;;;;5051821;28;20690;-83
2023/06/01 03:19:07;;;;;;;18.23;13.00;;;13.30;99.90;;;;;;5034680;28;20185;-84
2023/06/01 03:21:33;;;;;;;19.73;13.83;;;13.30;99.90;;;;;;5052909;28;20185;-80
2023/06/01 03:23:59;;;;;;;21.77;15.13;;;13.20;99.90;;;;;;5052641;28;20176;-82
2023/06/01 03:26:25;;;;;;;23.13;15.93;;;13.20;99.90;;;;;;5053871;28;20179;-82
2023/06/01 03:28:51;;;;;;;24.47;13.93;;;13.20;99.90;;;;;;5036366;28;20633;-82
2023/06/01 03:31:16;;;;;;;21.87;14.43;;;13.20;99.90;;;;;;5054670;28;20171;-81
2023/06/01 03:33:42;;;;;;;20.60;14.63;;;13.20;99.90;;;;;;5055544;28;20177;-82
2023/06/01 03:36:07;;;;;;;22.27;13.93;;;13.10;99.90;;;;;;5056248;28;20209;-84
2023/06/01 03:38:36;;;;;;;18.80;13.43;;;13.10;99.90;;;;;;5037305;28;20627;-82
2023/06/01 03:41:01;;;;;;;22.20;14.73;;;13.00;99.90;;;;;;5053803;28;20547;-83
2023/06/01 03:43:27;;;;;;;23.50;15.90;;;13.00;99.90;;;;;;5062214;28;20285;-84
2023/06/01 03:45:53;;;;;;;22.20;15.27;;;13.00;99.90;;;;;;5056715;28;20201;-82
2023/06/01 03:48:19;;;;;;;23.00;16.17;;;13.00;99.90;;;;;;5035876;28;20184;-83
2023/06/01 03:50:45;;;;;;;20.67;15.63;;;12.90;99.90;;;;;;5053068;28;20225;-82
2023/06/01 03:53:11;;;;;;;22.70;15.67;;;12.90;99.90;;;;;;5058917;28;20172;-81
2023/06/01 03:55:37;;;;;;;22.17;14.90;;;13.00;99.90;;;;;;5074527;28;20206;-80
2023/06/01 03:58:08;;;;;;;21.70;14.73;;;12.90;99.90;;;;;;5063892;28;20640;-79
2023/06/01 04:00:37;;;;;;;22.30;16.10;;;12.80;99.90;;;;;;5041895;28;20300;-79
2023/06/01 04:03:06;;;;;;;25.03;16.30;;;12.90;99.90;;;;;;5066916;28;20185;-80
2023/06/01 04:05:49;;;;;;;22.20;15.40;;;12.80;99.90;;;;;;5057330;28;20174;-84
2023/06/01 04:08:15;;;;;;;22.30;16.10;;;12.80;99.90;;;;;;5052977;28;20680;-81
2023/06/01 04:10:41;;;;;;;25.07;17.43;;;12.70;99.90;;;;;;5033900;28;20183;-81
2023/06/01 04:13:06;;;;;;;25.77;18.17;;;12.70;99.90;;;;;;5052955;28;20169;-79
2023/06/01 04:15:32;;;;;;;25.17;16.47;;;12.70;99.90;;;;;;5052716;28;20166;-81
2023/06/01 04:17:58;;;;;;;27.27;17.27;;;12.70;99.90;;;;;;5035111;28;20207;-83
2023/06/01 04:20:24;;;;;;;22.20;16.00;;;12.60;99.90;;;;;;5052343;28;20171;-80
2023/06/01 04:22:50;;;;;;;19.17;16.13;;;12.70;99.90;;;;;;5052750;28;20185;-83
2023/06/01 04:25:20;;;;;;;25.40;17.47;;;12.70;99.90;;;;;;5035125;28;20652;-80
2023/06/01 04:27:48;;;;;;;23.33;17.37;;;12.80;99.90;;;;;;5034244;28;20175;-81
2023/06/01 04:30:16;;;;;;;22.67;17.17;;;12.70;99.90;;;;;;5052898;28;20161;-80
2023/06/01 04:32:44;;;;;;;22.77;17.23;;;12.70;99.90;;;;;;5034931;28;20203;-82
2023/06/01 04:35:10;;;;;;;22.40;17.27;;;12.60;99.90;;;;;;5052022;28;20215;-83
2023/06/01 04:37:40;;;;;;;24.93;16.90;;;12.50;99.90;;;;;;5034825;28;20208;-82
2023/06/01 04:40:09;;;;;;;24.93;17.60;;;12.50;99.90;;;;;;5034871;28;20188;-80
2023/06/01 04:42:51;;;;;;;25.97;18.83;;;12.50;99.90;;;;;;5034417;28;20754;-82
2023/06/01 04:45:18;;;;;;;22.50;16.70;;;12.50;99.90;;;;;;5052041;28;20161;-83
2023/06/01 04:47:47;;;;;;;27.97;16.60;;;12.50;99.90;;;;;;5034686;28;20527;-80
2023/06/01 04:50:16;;;;;;;26.13;16.40;;;12.60;99.90;;;;;;5052129;28;20644;-82
2023/06/01 04:52:43;;;;;;;25.03;17.90;;;12.50;99.90;;;;;;5034084;28;20196;-80
2023/06/01 04:55:10;;;;;;;28.73;18.00;;;12.50;99.90;;;;;;5034443;28;20181;-82
2023/06/01 04:57:38;;;;;;;23.10;16.43;;;12.60;99.90;;;;;;5051310;28;20208;-81
2023/06/01 05:00:12;;;;;;;25.57;18.33;;;12.70;99.90;;;;;;5052847;28;20190;-83
2023/06/01 05:02:40;;;;;;;27.87;18.93;;;12.50;99.90;;;;;;5035268;28;20192;-85
2023/06/01 05:05:07;;;;;;;28.47;17.97;;;12.50;99.90;;;;;;5033385;28;20183;-83
2023/06/01 05:07:33;;;;;;;26.13;18.77;;;12.50;99.90;;;;;;5052716;28;20227;-84
2023/06/01 05:10:04;;;;;;;32.30;19.50;;;12.40;99.90;;;;;;5051083;28;20223;-81
2023/06/01 05:12:30;;;;;;;27.33;19.17;;;12.50;99.90;;;;;;5052245;28;20677;-84
2023/06/01 05:14:56;;;;;;;26.17;17.10;;;12.50;99.90;;;;;;5052580;28;20694;-81
2023/06/01 05:17:21;;;;;;;29.67;19.40;;;12.50;99.90;;;;;;5052121;28;20217;-82
2023/06/01 05:19:47;;;;;;;27.53;18.80;;;12.30;99.90;;;;;;5032783;28;20181;-81
2023/06/01 05:22:13;;;;;;;31.50;21.77;;;12.40;99.90;;;;;;5052763;28;20668;-84
2023/06/01 05:24:39;;;;;;;27.50;20.17;;;12.40;99.90;;;;;;5064802;28;20221;-83
2023/06/01 05:27:06;;;;;;;30.97;21.13;;;12.50;99.90;;;;;;5066289;28;20174;-84
2023/06/01 05:29:32;;;;;;;25.17;19.97;;;12.50;99.90;;;;;;5057819;28;20184;-82
2023/06/01 05:31:57;;;;;;;31.17;20.33;;;12.50;99.90;;;;;;5038709;28;20196;-82
2023/06/01 05:34:23;;;;;;;31.33;22.23;;;12.40;99.90;;;;;;5034739;28;20185;-80
2023/06/01 05:36:55;;;;;;;29.57;21.30;;;12.30;99.90;;;;;;5054715;28;20197;-83
2023/06/01 05:39:21;;;;;;;27.53;20.70;;;12.30;99.90;;;;;;5038775;28;20272;-81
2023/06/01 05:41:47;;;;;;;30.60;21.40;;;12.30;99.90;;;;;;5055324;28;20655;-80
2023/06/01 05:44:13;;;;;;;33.20;21.23;;;12.30;99.90;;;;;;5056628;28;20174;-82
2023/06/01 05:46:39;;;;;;;29.67;22.90;;;12.40;99.90;;;;;;5057253;28;20169;-82
2023/06/01 05:49:04;;;;;;;29.60;21.07;;;12.30;99.90;;;;;;5052285;28;20172;-81
2023/06/01 05:51:36;;;;;;;28.63;21.90;;;12.30;99.90;;;;;;5074337;28;20173;-79
2023/06/01 05:54:02;;;;;;;32.97;22.20;;;12.20;99.90;;;;;;5073007;28;20158;-81
2023/06/01 05:56:31;;;;;;;32.60;23.03;;;12.20;99.90;;;;;;5066225;28;20211;-80
2023/06/01 05:59:16;;;;;;;36.47;24.07;;;12.20;99.90;;;;;;5059498;28;20282;-83
2023/06/01 06:01:44;;;;;;;34.23;20.90;;;12.20;99.90;;;;;;5057068;28;20230;-85
2023/06/01 06:04:10;;;;;;;32.03;21.67;;;12.10;99.90;;;;;;5054869;28;20223;-81
2023/06/01 06:06:36;;;;;;;28.57;21.40;;;12.10;99.90;;;;;;5056613;28;20652;-84
2023/06/01 06:09:04;;;;;;;31.03;21.17;;;12.10;99.90;;;;;;5055279;28;20169;-85
2023/06/01 06:11:30;;;;;;;32.70;24.30;;;12.10;99.90;;;;;;5054047;28;20595;-81
2023/06/01 06:13:55;;;;;;;36.63;24.77;;;12.10;99.90;;;;;;5054900;28;20166;-84
2023/06/01 06:16:21;;;;;;;31.93;22.97;;;12.30;99.90;;;;;;5054311;28;20213;-85
2023/06/01 06:18:48;;;;;;;34.00;23.20;;;12.30;99.90;;;;;;5035756;28;20169;-84
2023/06/01 06:21:14;;;;;;;34.30;23.47;;;12.50;99.90;;;;;;5054271;28;20207;-82
2023/06/01 06:23:40;;;;;;;31.10;21.17;;;12.50;99.90;;;;;;5055419;28;20176;-83
2023/06/01 06:26:08;;;;;;;32.33;23.47;;;12.40;99.90;;;;;;5054489;28;20169;-81
2023/06/01 06:28:33;;;;;;;32.40;21.73;;;12.40;99.90;;;;;;5037929;28;20192;-84
2023/06/01 06:30:59;;;;;;;36.87;23.17;;;12.40;97.80;;;;;;5055059;28;20239;-84
2023/06/01 06:33:25;;;;;;;34.97;25.17;;;12.20;98.40;;;;;;5055326;28;20178;-86
2023/06/01 06:35:51;;;;;;;31.67;22.07;;;12.30;99.90;;;;;;5037140;28;20209;-80
2023/06/01 06:38:17;;;;;;;34.03;23.23;;;12.30;99.90;;;;;;5054719;28;20706;-83
2023/06/01 06:40:43;;;;;;;32.97;24.17;;;12.40;99.90;;;;;;5053958;28;20170;-85
2023/06/01 06:43:09;;;;;;;32.10;23.07;;;12.60;99.30;;;;;;5059830;28;20192;-81
2023/06/01 06:45:35;;;;;;;32.67;24.67;;;12.60;96.30;;;;;;5057809;28;20177;-81
2023/06/01 06:48:00;;;;;;;30.40;22.83;;;12.60;94.10;;;;;;5054624;28;20166;-79
2023/06/01 06:50:26;;;;;;;27.30;22.07;;;12.70;91.70;;;;;;5054119;28;20165;-82
2023/06/01 06:52:52;;;;;;;29.33;22.60;;;12.80;89.80;;;;;;5054735;28;20571;-79
2023/06/01 06:55:20;;;;;;;31.20;21.73;;;12.80;88.90;;;;;;5054395;28;20173;-81
2023/06/01 06:57:47;;;;;;;30.03;22.93;;;12.90;84.60;;;;;;5036964;28;20208;-82
2023/06/01 07:00:16;;;;;;;30.60;21.10;;;12.90;78.20;;;;;;5053949;28;20190;-85
2023/06/01 07:02:44;;;;;;;30.97;22.40;;;13.00;73.50;;;;;;5054301;28;20205;-82
2023/06/01 07:05:10;;;;;;;33.83;22.77;;;13.10;71.30;;;;;;5053330;28;20178;-80
2023/06/01 07:07:37;;;;;;;29.93;21.53;;;13.10;69.00;;;;;;5057488;28;20177;-79
2023/06/01 07:10:04;;;;;;;30.37;22.33;;;13.00;69.50;;;;;;5057853;28;20180;-78
2023/06/01 07:12:30;;;;;;;29.27;21.17;;;13.00;70.60;;;;;;5054788;28;20251;-81
2023/06/01 07:14:56;;;;;;;30.03;20.80;;;13.20;71.10;;;;;;5054215;28;20178;-82
2023/06/01 07:17:22;;;;;;;26.20;21.13;;;13.30;66.70;;;;;;5054074;28;20212;-80
2023/06/01 07:19:48;;;;;;;26.90;21.03;;;13.40;61.70;;;;;;5055313;28;20202;-80
2023/06/01 07:22:15;;;;;;;24.97;19.97;;;13.50;55.30;;;;;;5067193;28;20167;-79
2023/06/01 07:24:41;;;;;;;27.20;19.73;;;13.70;53.60;;;;;;5065728;28;20174;-79
2023/06/01 07:27:07;;;;;;;26.27;19.63;;;13.90;45.60;;;;;;5057582;28;20164;-81
2023/06/01 07:29:33;;;;;;;27.07;20.20;;;13.80;43.70;;;;;;5054089;28;20169;-84
2023/06/01 07:31:59;;;;;;;23.30;18.73;;;13.80;38.40;;;;;;5053974;28;20173;-85
2023/06/01 07:34:25;;;;;;;25.30;19.20;;;13.90;38.50;;;;;;5054002;28;20180;-79
2023/06/01 07:36:50;;;;;;;24.93;18.63;;;13.80;35.20;;;;;;5054178;28;20201;-83
2023/06/01 07:39:16;;;;;;;24.13;18.07;;;13.90;38.00;;;;;;5054278;28;20667;-80
2023/06/01 07:41:45;;;;;;;23.40;18.20;;;14.10;33.90;;;;;;5059760;28;20200;-79
2023/06/01 07:44:12;;;;;;;26.67;17.77;;;14.00;30.60;;;;;;5060088;28;20225;-81
2023/06/01 07:46:40;;;;;;;28.67;17.97;;;14.10;28.70;;;;;;5055180;28;20238;-83
2023/06/01 07:49:07;;;;;;;27.23;18.77;;;14.30;28.60;;;;;;5053189;28;20204;-79
2023/06/01 07:51:32;;;;;;;25.60;19.50;;;14.40;24.90;;;;;;5050962;28;20204;-83
2023/06/01 07:53:59;;;;;;;24.67;17.33;;;14.40;22.30;;;;;;5045247;28;20515;-81
2023/06/01 07:56:26;;;;;;;25.93;18.13;;;14.50;21.80;;;;;;5054282;28;20197;-83
2023/06/01 07:58:56;;;;;;;22.00;18.00;;;14.50;20.30;;;;;;5035950;28;20598;-80
2023/06/01 08:01:22;;;;;;;25.70;19.50;;;14.50;23.80;;;;;;5055674;28;20165;-82
2023/06/01 08:03:48;;;;;;;24.50;17.77;;;14.60;24.30;;;;;;5053497;28;20252;-85
2023/06/01 08:06:15;;;;;;;23.07;16.20;;;14.70;19.70;;;;;;5036389;28;20183;-83
2023/06/01 08:08:40;;;;;;;22.13;16.87;;;14.80;15.80;;;;;;5055574;28;20172;-81
2023/06/01 08:11:07;;;;;;;22.63;15.87;;;14.80;14.00;;;;;;5054788;28;20687;-80
2023/06/01 08:13:35;;;;;;;22.53;15.60;;;15.00;11.40;;;;;;5036036;28;20672;-86
2023/06/01 08:16:02;;;;;;;25.07;17.07;;;14.80;9.10;;;;;;5053710;28;20251;-83
2023/06/01 08:18:28;;;;;;;22.93;16.50;;;14.90;12.10;;;;;;5037007;28;20543;-80
2023/06/01 08:20:56;;;;;;;22.90;17.17;;;14.90;10.70;;;;;;5053680;28;20598;-80
2023/06/01 08:23:24;;;;;;;26.30;19.10;;;14.90;16.10;;;;;;5054389;28;20649;-84
2023/06/01 08:25:50;;;;;;;26.57;18.73;;;15.20;10.90;;;;;;5054057;28;20172;-83
2023/06/01 08:28:16;;;;;;;24.17;18.80;;;15.20;4.40;;;;;;5053734;28;20177;-79
2023/06/01 08:30:42;;;;;;;22.00;18.13;;;15.10;1.00;;;;;;5054004;28;20579;-82
2023/06/01 08:33:07;;;;;;;24.93;16.07;;;14.90;1.00;;;;;;5053276;28;20187;-81
2023/06/01 08:35:34;;;;;;;23.60;18.03;;;14.90;1.00;;;;;;5053859;28;20243;-80
2023/06/01 08:38:00;;;;;;;25.20;16.43;;;14.90;8.70;;;;;;5053231;28;20184;-81
2023/06/01 08:40:27;;;;;;;21.67;16.63;;;14.80;5.20;;;;;;5054294;28;20222;-81
2023/06/01 08:42:57;;;;;;;23.03;18.23;;;15.00;9.10;;;;;;5036416;28;20202;-82
2023/06/01 08:45:24;;;;;;;25.20;17.87;;;14.90;5.40;;;;;;5066668;28;20202;-80
2023/06/01 08:47:53;;;;;;;22.57;15.87;;;14.90;3.50;;;;;;5069102;28;20259;-80
2023/06/01 08:50:19;;;;;;;21.17;14.67;;;14.90;2.20;;;;;;5064070;28;20180;-77
2023/06/01 08:52:47;;;;;;;21.10;15.70;;;15.00;1.00;;;;;;5039949;28;20180;-79
2023/06/01 08:55:15;;;;;;;18.57;16.27;;;15.00;1.00;;;;;;5060765;28;20169;-80
2023/06/01 08:57:41;;;;;;;23.77;16.63;;;14.80;3.80;;;;;;5056629;28;20211;-80
2023/06/01 09:00:10;;;;;;;20.57;16.87;;;14.80;5.10;;;;;;5036761;28;20200;-81
2023/06/01 09:02:36;;;;;;;25.20;17.30;;;14.90;5.70;;;;;;5055258;28;20164;-81
2023/06/01 09:05:03;;;;;;;22.13;16.53;;;15.10;8.20;;;;;;5054542;28;20181;-82
2023/06/01 09:07:31;;;;;;;23.70;16.50;;;15.30;3.30;;;;;;5061010;28;20169;-78
2023/06/01 09:09:57;;;;;;;23.83;16.43;;;15.40;1.00;;;;;;5071331;28;20221;-81
2023/06/01 09:12:30;;;;;;;22.30;16.03;;;15.50;1.00;;;;;;5067125;28;20176;-84
2023/06/01 09:15:12;;;;;;;22.70;16.73;;;15.40;1.00;;;;;;5061856;28;20223;-79
2023/06/01 09:18:21;;;;;;;20.80;15.83;;;15.60;1.00;;;;;;5058838;28;20295;-85
2023/06/01 09:20:53;;;;;;;20.90;14.80;;;15.90;1.00;;;;;;5059632;28;20207;-84
2023/06/01 09:23:27;;;;;;;19.70;14.80;;;16.00;1.00;;;;;;5064333;28;20175;-83
2023/06/01 09:26:07;;;;;;;18.10;14.50;;;16.20;1.00;;;;;;5073766;28;20208;-83
2023/06/01 09:28:54;;;;;;;20.53;15.17;;;16.10;1.00;;;;;;5047059;28;20536;-85
2023/06/01 09:31:35;;;;;;;21.97;15.03;;;16.00;1.00;;;;;;5059932;28;20169;-84
2023/06/01 09:34:02;;;;;;;22.10;14.77;;;16.00;1.00;;;;;;5058412;28;20200;-82
2023/06/01 09:36:27;;;;;;;17.83;13.20;;;16.00;1.00;;;;;;5058535;28;20210;-80
2023/06/01 09:39:07;;;;;;;19.97;14.70;;;16.20;1.00;;;;;;5062521;28;20556;-85
2023/06/01 09:41:54;;;;;;;21.33;13.83;;;16.30;1.00;;;;;;5046049;28;20218;-83
2023/06/01 09:44:30;;;;;;;17.63;13.27;;;16.50;1.00;;;;;;5062535;28;20235;-85
2023/06/01 09:46:59;;;;;;;18.37;14.10;;;16.60;1.00;;;;;;5060932;28;20196;-85
2023/06/01 09:49:39;;;;;;;19.00;13.93;;;16.60;1.00;;;;;;5059272;28;20330;-83
2023/06/01 09:52:05;;;;;;;15.33;12.57;;;16.80;1.00;;;;;;5058764;28;20179;-85
2023/06/01 09:54:40;;;;;;;16.40;13.07;;;17.00;1.00;;;;;;5063874;28;20203;-83
2023/06/01 09:57:07;;;;;;;17.13;12.37;;;16.80;1.00;;;;;;5065635;28;20207;-85
2023/06/01 09:59:44;;;;;;;14.63;12.53;;;16.70;1.00;;;;;;5062030;28;20205;-86
2023/06/01 10:02:16;;;;;;;18.37;13.13;;;16.80;1.00;;;;;;5059687;28;20246;-86
2023/06/01 10:04:47;;;;;;;16.67;12.87;;;16.90;1.00;;;;;;5057829;28;20170;-85
2023/06/01 10:07:14;;;;;;;17.30;12.00;;;17.10;1.00;;;;;;5057683;28;20188;-87
2023/06/01 10:09:42;;;;;;;15.67;12.70;;;17.20;1.00;;;;;;5057873;28;20169;-87
2023/06/01 10:12:08;;;;;;;19.40;12.43;;;17.30;1.00;;;;;;5059094;28;20177;-87
2023/06/01 10:14:37;;;;;;;17.00;13.10;;;17.50;1.00;;;;;;5058414;28;20223;-87
2023/06/01 10:17:03;;;;;;;15.40;11.90;;;17.60;1.00;;;;;;5058937;28;20295;-86
2023/06/01 10:19:30;;;;;;;16.50;12.07;;;17.70;1.00;;;;;;5058962;28;20167;-85
2023/06/01 10:21:59;;;;;;;16.00;11.27;;;17.90;1.00;;;;;;5057469;28;20168;-87
2023/06/01 10:24:28;;;;;;;15.30;11.33;;;17.90;1.00;;;;;;5071325;28;20169;-82
2023/06/01 10:27:16;;;;;;;18.53;13.00;;;17.80;1.00;;;;;;5076100;28;20170;-85
2023/06/01 10:29:43;;;;;;;16.53;12.93;;;17.80;1.00;;;;;;5077268;28;20219;-86
2023/06/01 10:32:37;;;;;;;17.83;12.13;;;17.80;1.00;;;;;;5073175;28;20237;-83
2023/06/01 10:35:06;;;;;;;16.50;13.40;;;18.00;1.00;;;;;;5073423;28;20173;-86
2023/06/01 10:37:34;;;;;;;17.63;12.37;;;18.00;1.00;;;;;;5072485;28;20203;-84
2023/06/01 10:40:24;;;;;;;17.17;12.77;;;18.20;1.00;;;;;;5067884;28;20261;-85
2023/06/01 10:42:50;;;;;;;15.30;11.80;;;18.50;1.00;;;;;;5058314;28;20160;-84
2023/06/01 10:45:37;;;;;;;15.73;13.50;;;18.40;1.00;;;;;;5057752;28;20538;-83
2023/06/01 10:48:11;;;;;;;20.13;14.00;;;18.30;1.00;;;;;;5058766;28;20553;-86
2023/06/01 10:50:38;;;;;;;15.00;11.83;;;18.40;1.00;;;;;;5042214;28;20173;-84
2023/06/01 10:53:24;;;;;;;18.77;13.03;;;18.60;1.00;;;;;;5064224;28;20174;-80
2023/06/01 10:56:23;;;;;;;16.77;12.37;;;18.60;99.90;;;;;;5048739;28;20655;-83
2023/06/01 10:59:07;;;;;;;17.30;12.10;;;18.80;1.00;;;;;;5059126;28;20181;-84
2023/06/01 11:01:38;;;;;;;16.27;11.83;;;18.90;1.00;;;;;;5057281;28;20161;-83
2023/06/01 11:04:05;;;;;;;17.30;11.17;;;19.10;1.00;;;;;;5038076;28;20275;-85
2023/06/01 11:06:37;;;;;;;16.37;12.53;;;19.20;99.90;;;;;;5058103;28;20173;-88
2023/06/01 11:09:11;;;;;;;16.47;12.33;;;19.20;99.90;;;;;;5058557;28;20576;-83
2023/06/01 11:11:57;;;;;;;18.90;13.47;;;18.90;99.90;;;;;;5058129;28;20542;-86
2023/06/01 11:14:26;;;;;;;16.67;12.57;;;19.10;99.90;;;;;;5041131;28;20179;-85
2023/06/01 11:16:52;;;;;;;25.70;14.47;;;19.10;99.90;;;;;;5058242;28;20292;-83
2023/06/01 11:19:26;;;;;;;17.83;12.93;;;19.30;99.90;;;;;;5059665;28;20205;-85
2023/06/01 11:22:04;;;;;;;21.73;12.77;;;19.60;99.90;;;;;;5059301;28;20172;-85
2023/06/01 11:24:36;;;;;;;16.27;12.33;;;19.70;99.90;;;;;;5058984;28;20180;-85
2023/06/01 11:27:09;;;;;;;18.90;12.87;;;19.70;99.90;;;;;;5040975;28;20187;-85
2023/06/01 11:29:35;;;;;;;25.20;13.93;;;19.80;99.90;;;;;;5058871;28;20180;-85
2023/06/01 11:32:03;;;;;;;16.30;13.47;;;19.90;99.90;;;;;;5058414;28;20236;-81
2023/06/01 11:34:38;;;;;;;14.63;11.87;;;20.00;99.90;;;;;;5058466;28;20165;-85
2023/06/01 11:37:05;;;;;;;19.17;11.43;;;20.10;99.90;;;;;;5060266;28;20200;-86
2023/06/01 11:39:31;;;;;;;19.07;13.07;;;20.10;99.90;;;;;;5057655;28;20270;-85
2023/06/01 11:42:05;;;;;;;18.43;13.20;;;20.00;99.90;;;;;;5057950;28;20164;-86
2023/06/01 11:44:38;;;;;;;17.60;13.20;;;19.90;99.90;;;;;;5058399;28;20164;-86
2023/06/01 11:47:05;;;;;;;15.73;12.50;;;19.80;99.90;;;;;;5044827;28;20177;-84
2023/06/01 11:49:39;;;;;;;15.43;12.43;;;20.00;99.90;;;;;;5056972;28;20183;-84
2023/06/01 11:52:08;;;;;;;15.03;12.27;;;20.10;99.90;;;;;;5055526;28;20613;-82
2023/06/01 11:54:36;;;;;;;17.17;12.37;;;20.20;99.90;;;;;;5055056;28;20188;-85
2023/06/01 11:57:03;;;;;;;18.43;12.63;;;20.30;99.90;;;;;;5056210;28;20294;-82
2023/06/01 11:59:59;;;;;;;19.43;14.63;;;20.30;99.90;;;;;;5039863;28;20239;-87
2023/06/01 12:02:29;;;;;;;17.23;12.33;;;20.10;99.90;;;;;;5071994;28;20177;-83
2023/06/01 12:05:06;;;;;;;16.03;11.73;;;20.10;28.90;;;;;;5076651;28;20199;-84
2023/06/01 12:07:43;;;;;;;14.93;11.33;;;20.10;79.30;;;;;;5063378;28;20157;-83
2023/06/01 12:10:13;;;;;;;19.03;11.97;;;20.10;1.00;;;;;;5068721;28;20187;-84
2023/06/01 12:12:57;;;;;;;20.83;13.27;;;20.30;1.00;;;;;;5066294;28;20163;-86
2023/06/01 12:15:23;;;;;;;13.93;12.17;;;20.30;1.00;;;;;;5058308;28;20290;-85
2023/06/01 12:17:49;;;;;;;20.03;11.93;;;20.40;1.00;;;;;;5058524;28;20714;-83
2023/06/01 12:20:35;;;;;;;14.87;11.13;;;20.30;1.00;;;;;;5038348;28;20627;-85
2023/06/01 12:23:22;;;;;;;15.97;11.90;;;20.40;99.90;;;;;;5057225;28;20389;-82
2023/06/01 12:25:53;;;;;;;17.03;11.50;;;20.30;1.00;;;;;;5061114;28;20180;-82
2023/06/01 12:28:21;;;;;;;15.17;10.83;;;20.40;99.90;;;;;;5072998;28;20165;-83
2023/06/01 12:30:48;;;;;;;14.20;10.73;;;20.60;1.00;;;;;;5049163;28;20173;-88
2023/06/01 12:33:36;;;;;;;18.30;12.20;;;20.60;1.00;;;;;;5062780;28;20168;-84
2023/06/01 12:36:07;;;;;;;16.77;11.50;;;20.70;1.00;;;;;;5059641;28;20189;-89
2023/06/01 12:38:37;;;;;;;13.77;11.30;;;20.80;49.30;;;;;;5059163;28;20175;-85
2023/06/01 12:41:10;;;;;;;16.37;11.20;;;20.70;1.00;;;;;;5040561;28;20219;-84